sensor_id;sensor_type;location;lat;lon;timestamp;P1;durP1;ratioP1;P2;durP2;ratioP2
47812;SDS011;34221;45.296;9.516;2022-07-23T00:00:08;12.38;;;9.10;;
47812;SDS011;34221;45.296;9.516;2022-07-23T00:00:24;14.45;;;8.73;;
47812;SDS011;34221;45.296;9.516;2022-07-23T00:00:39;14.83;;;9.07;;
47812;SDS011;34221;45.296;9.516;2022-07-23T00:00:54;14.70;;;9.35;;
47812;SDS011;34221;45.296;9.516;2022-07-23T00:01:09;15.00;;;9.32;;
47812;SDS011;34221;45.296;9.516;2022-07-23T00:01:24;12.93;;;8.90;;
47812;SDS011;34221;45.296;9.516;2022-07-23T00:01:38;14.17;;;9.10;;
47812;SDS011;34221;45.296;9.516;2022-07-23T00:01:55;15.88;;;9.40;;
47812;SDS011;34221;45.296;9.516;2022-07-23T00:02:10;15.48;;;9.38;;
47812;SDS011;34221;45.296;9.516;2022-07-23T00:02:25;14.45;;;9.30;;
47812;SDS011;34221;45.296;9.516;2022-07-23T00:02:40;13.70;;;9.32;;
47812;SDS011;34221;45.296;9.516;2022-07-23T00:02:55;16.30;;;9.48;;
47812;SDS011;34221;45.296;9.516;2022-07-23T00:03:10;15.57;;;9.57;;
47812;SDS011;34221;45.296;9.516;2022-07-23T00:03:25;15.63;;;9.80;;
47812;SDS011;34221;45.296;9.516;2022-07-23T00:03:40;17.13;;;9.68;;
47812;SDS011;34221;45.296;9.516;2022-07-23T00:03:55;15.15;;;9.18;;
47812;SDS011;34221;45.296;9.516;2022-07-23T00:04:10;14.95;;;9.02;;
47812;SDS011;34221;45.296;9.516;2022-07-23T00:04:25;15.25;;;9.00;;
47812;SDS011;34221;45.296;9.516;2022-07-23T00:04:40;14.45;;;9.25;;
47812;SDS011;34221;45.296;9.516;2022-07-23T00:04:55;14.15;;;9.32;;
47812;SDS011;34221;45.296;9.516;2022-07-23T00:05:10;14.30;;;9.25;;
47812;SDS011;34221;45.296;9.516;2022-07-23T00:05:25;17.27;;;9.48;;
47812;SDS011;34221;45.296;9.516;2022-07-23T00:05:40;16.55;;;9.02;;
47812;SDS011;34221;45.296;9.516;2022-07-23T00:05:55;12.88;;;8.93;;
47812;SDS011;34221;45.296;9.516;2022-07-23T00:06:10;12.80;;;9.75;;
47812;SDS011;34221;45.296;9.516;2022-07-23T00:06:25;14.13;;;9.70;;
47812;SDS011;34221;45.296;9.516;2022-07-23T00:06:40;14.35;;;9.18;;
47812;SDS011;34221;45.296;9.516;2022-07-23T00:06:55;12.73;;;9.13;;
47812;SDS011;34221;45.296;9.516;2022-07-23T00:07:10;14.88;;;9.48;;
47812;SDS011;34221;45.296;9.516;2022-07-23T00:07:25;17.80;;;9.82;;
47812;SDS011;34221;45.296;9.516;2022-07-23T00:07:40;17.40;;;9.48;;
47812;SDS011;34221;45.296;9.516;2022-07-23T00:07:55;16.42;;;9.02;;
47812;SDS011;34221;45.296;9.516;2022-07-23T00:08:10;14.00;;;8.90;;
47812;SDS011;34221;45.296;9.516;2022-07-23T00:08:25;13.00;;;9.13;;
47812;SDS011;34221;45.296;9.516;2022-07-23T00:08:40;13.60;;;9.40;;
47812;SDS011;34221;45.296;9.516;2022-07-23T00:08:55;14.07;;;9.05;;
47812;SDS011;34221;45.296;9.516;2022-07-23T00:09:10;12.88;;;8.65;;
47812;SDS011;34221;45.296;9.516;2022-07-23T00:09:25;13.05;;;9.02;;
47812;SDS011;34221;45.296;9.516;2022-07-23T00:09:45;14.13;;;9.32;;
47812;SDS011;34221;45.296;9.516;2022-07-23T00:10:00;13.37;;;8.83;;
47812;SDS011;34221;45.296;9.516;2022-07-23T00:10:15;10.60;;;8.00;;
47812;SDS011;34221;45.296;9.516;2022-07-23T00:10:30;9.70;;;7.80;;
47812;SDS011;34221;45.296;9.516;2022-07-23T00:10:45;10.48;;;8.18;;
47812;SDS011;34221;45.296;9.516;2022-07-23T00:11:00;11.85;;;8.70;;
47812;SDS011;34221;45.296;9.516;2022-07-23T00:11:15;13.68;;;9.23;;
47812;SDS011;34221;45.296;9.516;2022-07-23T00:11:30;15.70;;;9.65;;
47812;SDS011;34221;45.296;9.516;2022-07-23T00:11:45;15.13;;;9.77;;
47812;SDS011;34221;45.296;9.516;2022-07-23T00:12:00;13.43;;;9.43;;
47812;SDS011;34221;45.296;9.516;2022-07-23T00:12:14;14.95;;;9.27;;
47812;SDS011;34221;45.296;9.516;2022-07-23T00:12:29;14.75;;;9.15;;
47812;SDS011;34221;45.296;9.516;2022-07-23T00:12:45;14.48;;;9.40;;
47812;SDS011;34221;45.296;9.516;2022-07-23T00:13:00;13.95;;;9.32;;
47812;SDS011;34221;45.296;9.516;2022-07-23T00:13:17;11.30;;;9.17;;
47812;SDS011;34221;45.296;9.516;2022-07-23T00:13:32;14.45;;;9.95;;
47812;SDS011;34221;45.296;9.516;2022-07-23T00:13:47;16.98;;;9.75;;
47812;SDS011;34221;45.296;9.516;2022-07-23T00:14:02;17.33;;;9.52;;
47812;SDS011;34221;45.296;9.516;2022-07-23T00:14:18;17.45;;;9.75;;
47812;SDS011;34221;45.296;9.516;2022-07-23T00:14:32;15.63;;;9.65;;
47812;SDS011;34221;45.296;9.516;2022-07-23T00:14:47;15.73;;;9.52;;
47812;SDS011;34221;45.296;9.516;2022-07-23T00:15:03;15.90;;;9.73;;
47812;SDS011;34221;45.296;9.516;2022-07-23T00:15:19;15.27;;;9.40;;
47812;SDS011;34221;45.296;9.516;2022-07-23T00:15:34;14.85;;;9.75;;
47812;SDS011;34221;45.296;9.516;2022-07-23T00:15:49;13.65;;;9.82;;
47812;SDS011;34221;45.296;9.516;2022-07-23T00:16:04;13.90;;;9.27;;
47812;SDS011;34221;45.296;9.516;2022-07-23T00:16:20;12.98;;;8.65;;
47812;SDS011;34221;45.296;9.516;2022-07-23T00:16:35;14.02;;;8.82;;
47812;SDS011;34221;45.296;9.516;2022-07-23T00:16:50;15.57;;;9.73;;
47812;SDS011;34221;45.296;9.516;2022-07-23T00:17:05;14.00;;;9.30;;
47812;SDS011;34221;45.296;9.516;2022-07-23T00:17:20;12.35;;;8.85;;
47812;SDS011;34221;45.296;9.516;2022-07-23T00:17:35;12.23;;;9.10;;
47812;SDS011;34221;45.296;9.516;2022-07-23T00:17:50;13.35;;;9.70;;
47812;SDS011;34221;45.296;9.516;2022-07-23T00:18:05;13.52;;;9.85;;
47812;SDS011;34221;45.296;9.516;2022-07-23T00:18:20;14.63;;;9.90;;
47812;SDS011;34221;45.296;9.516;2022-07-23T00:18:35;15.73;;;9.70;;
47812;SDS011;34221;45.296;9.516;2022-07-23T00:18:51;18.55;;;9.60;;
47812;SDS011;34221;45.296;9.516;2022-07-23T00:19:06;18.50;;;10.02;;
47812;SDS011;34221;45.296;9.516;2022-07-23T00:19:21;16.88;;;9.77;;
47812;SDS011;34221;45.296;9.516;2022-07-23T00:19:36;17.65;;;9.85;;
47812;SDS011;34221;45.296;9.516;2022-07-23T00:19:50;16.67;;;10.23;;
47812;SDS011;34221;45.296;9.516;2022-07-23T00:20:07;14.95;;;9.88;;
47812;SDS011;34221;45.296;9.516;2022-07-23T00:20:22;16.33;;;9.68;;
47812;SDS011;34221;45.296;9.516;2022-07-23T00:20:37;15.70;;;9.73;;
47812;SDS011;34221;45.296;9.516;2022-07-23T00:20:52;13.88;;;9.85;;
47812;SDS011;34221;45.296;9.516;2022-07-23T00:21:07;14.07;;;9.50;;
47812;SDS011;34221;45.296;9.516;2022-07-23T00:21:22;13.15;;;9.43;;
47812;SDS011;34221;45.296;9.516;2022-07-23T00:21:37;15.02;;;9.85;;
47812;SDS011;34221;45.296;9.516;2022-07-23T00:21:52;16.23;;;10.25;;
47812;SDS011;34221;45.296;9.516;2022-07-23T00:22:07;14.27;;;9.80;;
47812;SDS011;34221;45.296;9.516;2022-07-23T00:22:23;13.35;;;9.35;;
47812;SDS011;34221;45.296;9.516;2022-07-23T00:22:52;12.77;;;9.20;;
47812;SDS011;34221;45.296;9.516;2022-07-23T00:23:09;14.95;;;9.55;;
47812;SDS011;34221;45.296;9.516;2022-07-23T00:23:24;14.65;;;10.00;;
47812;SDS011;34221;45.296;9.516;2022-07-23T00:23:39;14.65;;;9.93;;
47812;SDS011;34221;45.296;9.516;2022-07-23T00:23:54;14.90;;;9.65;;
47812;SDS011;34221;45.296;9.516;2022-07-23T00:24:09;15.35;;;9.55;;
47812;SDS011;34221;45.296;9.516;2022-07-23T00:24:24;15.38;;;9.65;;
47812;SDS011;34221;45.296;9.516;2022-07-23T00:24:40;15.75;;;9.70;;
47812;SDS011;34221;45.296;9.516;2022-07-23T00:24:55;14.75;;;9.35;;
47812;SDS011;34221;45.296;9.516;2022-07-23T00:25:10;14.07;;;9.20;;
47812;SDS011;34221;45.296;9.516;2022-07-23T00:25:26;14.32;;;9.52;;
47812;SDS011;34221;45.296;9.516;2022-07-23T00:25:41;17.90;;;10.27;;
47812;SDS011;34221;45.296;9.516;2022-07-23T00:25:56;17.92;;;10.52;;
47812;SDS011;34221;45.296;9.516;2022-07-23T00:26:11;14.57;;;9.98;;
47812;SDS011;34221;45.296;9.516;2022-07-23T00:26:26;14.85;;;9.98;;
47812;SDS011;34221;45.296;9.516;2022-07-23T00:26:41;14.40;;;10.57;;
47812;SDS011;34221;45.296;9.516;2022-07-23T00:26:56;14.95;;;10.60;;
47812;SDS011;34221;45.296;9.516;2022-07-23T00:27:11;15.70;;;9.95;;
47812;SDS011;34221;45.296;9.516;2022-07-23T00:27:26;16.30;;;10.15;;
47812;SDS011;34221;45.296;9.516;2022-07-23T00:27:42;15.75;;;10.20;;
47812;SDS011;34221;45.296;9.516;2022-07-23T00:27:58;14.35;;;9.73;;
47812;SDS011;34221;45.296;9.516;2022-07-23T00:28:13;13.75;;;10.15;;
47812;SDS011;34221;45.296;9.516;2022-07-23T00:28:28;16.33;;;10.18;;
47812;SDS011;34221;45.296;9.516;2022-07-23T00:28:43;17.50;;;10.02;;
47812;SDS011;34221;45.296;9.516;2022-07-23T00:28:58;16.25;;;10.43;;
47812;SDS011;34221;45.296;9.516;2022-07-23T00:29:13;17.20;;;10.75;;
47812;SDS011;34221;45.296;9.516;2022-07-23T00:29:28;17.25;;;10.43;;
47812;SDS011;34221;45.296;9.516;2022-07-23T00:29:43;19.23;;;10.60;;
47812;SDS011;34221;45.296;9.516;2022-07-23T00:29:58;18.30;;;11.48;;
47812;SDS011;34221;45.296;9.516;2022-07-23T00:30:14;15.30;;;10.90;;
47812;SDS011;34221;45.296;9.516;2022-07-23T00:30:29;15.82;;;10.38;;
47812;SDS011;34221;45.296;9.516;2022-07-23T00:30:45;14.82;;;10.07;;
47812;SDS011;34221;45.296;9.516;2022-07-23T00:31:00;13.23;;;9.90;;
47812;SDS011;34221;45.296;9.516;2022-07-23T00:31:36;17.10;;;11.10;;
47812;SDS011;34221;45.296;9.516;2022-07-23T00:31:51;18.40;;;11.38;;
47812;SDS011;34221;45.296;9.516;2022-07-23T00:32:06;19.10;;;11.00;;
47812;SDS011;34221;45.296;9.516;2022-07-23T00:32:21;18.42;;;10.60;;
47812;SDS011;34221;45.296;9.516;2022-07-23T00:32:46;18.40;;;10.60;;
47812;SDS011;34221;45.296;9.516;2022-07-23T00:33:07;15.35;;;10.50;;
47812;SDS011;34221;45.296;9.516;2022-07-23T00:33:22;16.10;;;10.48;;
47812;SDS011;34221;45.296;9.516;2022-07-23T00:33:37;17.42;;;10.73;;
47812;SDS011;34221;45.296;9.516;2022-07-23T00:33:52;18.15;;;11.35;;
47812;SDS011;34221;45.296;9.516;2022-07-23T00:34:10;20.40;;;12.17;;
47812;SDS011;34221;45.296;9.516;2022-07-23T00:34:25;19.53;;;11.50;;
47812;SDS011;34221;45.296;9.516;2022-07-23T00:34:40;18.67;;;10.82;;
47812;SDS011;34221;45.296;9.516;2022-07-23T00:34:55;18.38;;;10.85;;
47812;SDS011;34221;45.296;9.516;2022-07-23T00:35:10;16.87;;;11.07;;
47812;SDS011;34221;45.296;9.516;2022-07-23T00:35:26;16.90;;;11.13;;
47812;SDS011;34221;45.296;9.516;2022-07-23T00:35:44;15.88;;;10.77;;
47812;SDS011;34221;45.296;9.516;2022-07-23T00:35:59;17.10;;;11.15;;
47812;SDS011;34221;45.296;9.516;2022-07-23T00:36:14;18.45;;;11.50;;
47812;SDS011;34221;45.296;9.516;2022-07-23T00:36:29;17.48;;;11.60;;
47812;SDS011;34221;45.296;9.516;2022-07-23T00:36:45;16.77;;;11.48;;
47812;SDS011;34221;45.296;9.516;2022-07-23T00:37:00;15.93;;;11.32;;
47812;SDS011;34221;45.296;9.516;2022-07-23T00:37:15;16.15;;;11.27;;
47812;SDS011;34221;45.296;9.516;2022-07-23T00:37:30;17.03;;;11.50;;
47812;SDS011;34221;45.296;9.516;2022-07-23T00:37:45;16.92;;;10.95;;
47812;SDS011;34221;45.296;9.516;2022-07-23T00:38:01;16.77;;;10.43;;
47812;SDS011;34221;45.296;9.516;2022-07-23T00:38:16;16.15;;;10.52;;
47812;SDS011;34221;45.296;9.516;2022-07-23T00:38:31;17.00;;;10.60;;
47812;SDS011;34221;45.296;9.516;2022-07-23T00:38:46;16.90;;;11.00;;
47812;SDS011;34221;45.296;9.516;2022-07-23T00:39:02;15.02;;;11.13;;
47812;SDS011;34221;45.296;9.516;2022-07-23T00:39:16;13.90;;;10.10;;
47812;SDS011;34221;45.296;9.516;2022-07-23T00:39:32;13.25;;;9.70;;
47812;SDS011;34221;45.296;9.516;2022-07-23T00:39:47;17.17;;;10.50;;
47812;SDS011;34221;45.296;9.516;2022-07-23T00:40:02;20.83;;;10.93;;
47812;SDS011;34221;45.296;9.516;2022-07-23T00:40:17;18.33;;;10.88;;
47812;SDS011;34221;45.296;9.516;2022-07-23T00:40:32;16.80;;;10.90;;
47812;SDS011;34221;45.296;9.516;2022-07-23T00:40:48;17.42;;;11.18;;
47812;SDS011;34221;45.296;9.516;2022-07-23T00:41:03;16.08;;;11.13;;
47812;SDS011;34221;45.296;9.516;2022-07-23T00:41:18;13.60;;;10.70;;
47812;SDS011;34221;45.296;9.516;2022-07-23T00:41:34;14.60;;;10.75;;
47812;SDS011;34221;45.296;9.516;2022-07-23T00:41:49;16.15;;;11.07;;
47812;SDS011;34221;45.296;9.516;2022-07-23T00:42:05;16.08;;;11.27;;
47812;SDS011;34221;45.296;9.516;2022-07-23T00:42:20;15.40;;;11.05;;
47812;SDS011;34221;45.296;9.516;2022-07-23T00:42:35;17.53;;;10.97;;
47812;SDS011;34221;45.296;9.516;2022-07-23T00:42:50;18.23;;;11.38;;
47812;SDS011;34221;45.296;9.516;2022-07-23T00:43:05;17.24;;;11.58;;
47812;SDS011;34221;45.296;9.516;2022-07-23T00:43:20;19.02;;;11.80;;
47812;SDS011;34221;45.296;9.516;2022-07-23T00:43:36;15.53;;;11.27;;
47812;SDS011;34221;45.296;9.516;2022-07-23T00:43:51;15.95;;;11.18;;
47812;SDS011;34221;45.296;9.516;2022-07-23T00:44:38;15.85;;;11.10;;
47812;SDS011;34221;45.296;9.516;2022-07-23T00:44:53;16.30;;;11.20;;
47812;SDS011;34221;45.296;9.516;2022-07-23T00:45:08;15.02;;;10.70;;
47812;SDS011;34221;45.296;9.516;2022-07-23T00:45:44;18.80;;;11.10;;
47812;SDS011;34221;45.296;9.516;2022-07-23T00:45:59;22.83;;;11.57;;
47812;SDS011;34221;45.296;9.516;2022-07-23T00:46:20;21.13;;;11.40;;
47812;SDS011;34221;45.296;9.516;2022-07-23T00:46:36;20.38;;;11.35;;
47812;SDS011;34221;45.296;9.516;2022-07-23T00:46:55;22.03;;;11.17;;
47812;SDS011;34221;45.296;9.516;2022-07-23T00:47:12;21.65;;;11.93;;
47812;SDS011;34221;45.296;9.516;2022-07-23T00:47:27;19.42;;;11.93;;
47812;SDS011;34221;45.296;9.516;2022-07-23T00:47:42;17.67;;;11.23;;
47812;SDS011;34221;45.296;9.516;2022-07-23T00:47:58;18.15;;;11.38;;
47812;SDS011;34221;45.296;9.516;2022-07-23T00:48:13;17.48;;;11.13;;
47812;SDS011;34221;45.296;9.516;2022-07-23T00:48:28;16.10;;;10.23;;
47812;SDS011;34221;45.296;9.516;2022-07-23T00:48:43;17.50;;;10.73;;
47812;SDS011;34221;45.296;9.516;2022-07-23T00:48:58;16.63;;;11.43;;
47812;SDS011;34221;45.296;9.516;2022-07-23T00:49:13;16.50;;;10.70;;
47812;SDS011;34221;45.296;9.516;2022-07-23T00:49:29;15.15;;;10.40;;
47812;SDS011;34221;45.296;9.516;2022-07-23T00:49:44;13.40;;;10.95;;
47812;SDS011;34221;45.296;9.516;2022-07-23T00:49:59;14.85;;;11.20;;
47812;SDS011;34221;45.296;9.516;2022-07-23T00:50:14;18.05;;;11.57;;
47812;SDS011;34221;45.296;9.516;2022-07-23T00:50:29;19.52;;;11.50;;
47812;SDS011;34221;45.296;9.516;2022-07-23T00:50:44;19.08;;;11.10;;
47812;SDS011;34221;45.296;9.516;2022-07-23T00:51:00;19.05;;;11.57;;
47812;SDS011;34221;45.296;9.516;2022-07-23T00:51:17;16.67;;;11.75;;
47812;SDS011;34221;45.296;9.516;2022-07-23T00:51:32;15.57;;;11.47;;
47812;SDS011;34221;45.296;9.516;2022-07-23T00:51:48;16.10;;;11.55;;
47812;SDS011;34221;45.296;9.516;2022-07-23T00:52:03;15.65;;;11.82;;
47812;SDS011;34221;45.296;9.516;2022-07-23T00:52:20;17.80;;;11.87;;
47812;SDS011;34221;45.296;9.516;2022-07-23T00:52:36;17.63;;;11.73;;
47812;SDS011;34221;45.296;9.516;2022-07-23T00:52:54;15.35;;;11.80;;
47812;SDS011;34221;45.296;9.516;2022-07-23T00:53:10;17.13;;;12.13;;
47812;SDS011;34221;45.296;9.516;2022-07-23T00:53:25;15.73;;;12.05;;
47812;SDS011;34221;45.296;9.516;2022-07-23T00:53:41;15.85;;;12.35;;
47812;SDS011;34221;45.296;9.516;2022-07-23T00:53:56;17.38;;;12.25;;
47812;SDS011;34221;45.296;9.516;2022-07-23T00:54:11;18.30;;;12.18;;
47812;SDS011;34221;45.296;9.516;2022-07-23T00:54:26;18.58;;;12.32;;
47812;SDS011;34221;45.296;9.516;2022-07-23T00:54:42;19.60;;;11.95;;
47812;SDS011;34221;45.296;9.516;2022-07-23T00:54:57;19.98;;;11.85;;
47812;SDS011;34221;45.296;9.516;2022-07-23T00:55:13;19.60;;;11.98;;
47812;SDS011;34221;45.296;9.516;2022-07-23T00:55:28;18.10;;;12.00;;
47812;SDS011;34221;45.296;9.516;2022-07-23T00:55:44;15.73;;;11.57;;
47812;SDS011;34221;45.296;9.516;2022-07-23T00:55:59;17.48;;;11.80;;
47812;SDS011;34221;45.296;9.516;2022-07-23T00:56:14;18.73;;;11.85;;
47812;SDS011;34221;45.296;9.516;2022-07-23T00:56:30;16.42;;;11.63;;
47812;SDS011;34221;45.296;9.516;2022-07-23T00:56:46;15.10;;;11.50;;
47812;SDS011;34221;45.296;9.516;2022-07-23T00:57:01;14.93;;;11.45;;
47812;SDS011;34221;45.296;9.516;2022-07-23T00:57:17;15.38;;;11.88;;
47812;SDS011;34221;45.296;9.516;2022-07-23T00:57:33;18.23;;;12.07;;
47812;SDS011;34221;45.296;9.516;2022-07-23T00:57:48;18.90;;;11.77;;
47812;SDS011;34221;45.296;9.516;2022-07-23T00:58:05;16.65;;;10.93;;
47812;SDS011;34221;45.296;9.516;2022-07-23T00:58:20;14.73;;;11.02;;
47812;SDS011;34221;45.296;9.516;2022-07-23T00:58:35;14.10;;;11.20;;
47812;SDS011;34221;45.296;9.516;2022-07-23T00:58:53;15.05;;;11.40;;
47812;SDS011;34221;45.296;9.516;2022-07-23T00:59:08;16.23;;;11.88;;
47812;SDS011;34221;45.296;9.516;2022-07-23T00:59:23;16.25;;;11.57;;
47812;SDS011;34221;45.296;9.516;2022-07-23T00:59:39;16.30;;;11.75;;
47812;SDS011;34221;45.296;9.516;2022-07-23T00:59:54;16.65;;;11.63;;
47812;SDS011;34221;45.296;9.516;2022-07-23T01:00:11;17.38;;;11.23;;
47812;SDS011;34221;45.296;9.516;2022-07-23T01:00:28;15.02;;;11.65;;
47812;SDS011;34221;45.296;9.516;2022-07-23T01:00:43;14.98;;;12.10;;
47812;SDS011;34221;45.296;9.516;2022-07-23T01:00:58;15.05;;;11.50;;
47812;SDS011;34221;45.296;9.516;2022-07-23T01:01:13;15.73;;;11.77;;
47812;SDS011;34221;45.296;9.516;2022-07-23T01:01:28;14.85;;;11.88;;
47812;SDS011;34221;45.296;9.516;2022-07-23T01:01:43;15.55;;;11.10;;
47812;SDS011;34221;45.296;9.516;2022-07-23T01:02:03;16.90;;;11.10;;
47812;SDS011;34221;45.296;9.516;2022-07-23T01:02:18;16.23;;;11.75;;
47812;SDS011;34221;45.296;9.516;2022-07-23T01:02:34;16.88;;;12.00;;
47812;SDS011;34221;45.296;9.516;2022-07-23T01:02:49;17.70;;;11.88;;
47812;SDS011;34221;45.296;9.516;2022-07-23T01:03:04;18.60;;;12.25;;
47812;SDS011;34221;45.296;9.516;2022-07-23T01:03:19;20.40;;;12.60;;
47812;SDS011;34221;45.296;9.516;2022-07-23T01:03:34;19.00;;;12.75;;
47812;SDS011;34221;45.296;9.516;2022-07-23T01:03:49;17.48;;;12.95;;
47812;SDS011;34221;45.296;9.516;2022-07-23T01:04:04;17.50;;;13.00;;
47812;SDS011;34221;45.296;9.516;2022-07-23T01:04:19;19.02;;;12.75;;
47812;SDS011;34221;45.296;9.516;2022-07-23T01:04:34;18.75;;;12.40;;
47812;SDS011;34221;45.296;9.516;2022-07-23T01:04:50;19.55;;;12.55;;
47812;SDS011;34221;45.296;9.516;2022-07-23T01:05:05;20.98;;;12.77;;
47812;SDS011;34221;45.296;9.516;2022-07-23T01:05:21;17.55;;;12.63;;
47812;SDS011;34221;45.296;9.516;2022-07-23T01:05:42;18.58;;;12.52;;
47812;SDS011;34221;45.296;9.516;2022-07-23T01:05:58;19.38;;;12.60;;
47812;SDS011;34221;45.296;9.516;2022-07-23T01:06:13;21.98;;;12.40;;
47812;SDS011;34221;45.296;9.516;2022-07-23T01:06:29;22.38;;;12.15;;
47812;SDS011;34221;45.296;9.516;2022-07-23T01:06:49;17.00;;;12.50;;
47812;SDS011;34221;45.296;9.516;2022-07-23T01:07:04;17.42;;;12.68;;
47812;SDS011;34221;45.296;9.516;2022-07-23T01:07:19;18.20;;;12.35;;
47812;SDS011;34221;45.296;9.516;2022-07-23T01:07:35;18.25;;;12.48;;
47812;SDS011;34221;45.296;9.516;2022-07-23T01:07:51;16.40;;;12.27;;
47812;SDS011;34221;45.296;9.516;2022-07-23T01:08:06;15.02;;;12.27;;
47812;SDS011;34221;45.296;9.516;2022-07-23T01:08:21;16.73;;;12.73;;
47812;SDS011;34221;45.296;9.516;2022-07-23T01:08:36;18.27;;;13.02;;
47812;SDS011;34221;45.296;9.516;2022-07-23T01:08:53;19.25;;;13.23;;
47812;SDS011;34221;45.296;9.516;2022-07-23T01:09:09;18.50;;;12.85;;
47812;SDS011;34221;45.296;9.516;2022-07-23T01:09:24;17.40;;;13.00;;
47812;SDS011;34221;45.296;9.516;2022-07-23T01:09:39;17.55;;;12.63;;
47812;SDS011;34221;45.296;9.516;2022-07-23T01:09:55;18.23;;;12.25;;
47812;SDS011;34221;45.296;9.516;2022-07-23T01:10:10;17.52;;;12.40;;
47812;SDS011;34221;45.296;9.516;2022-07-23T01:10:43;19.37;;;12.77;;
47812;SDS011;34221;45.296;9.516;2022-07-23T01:10:59;19.75;;;12.85;;
47812;SDS011;34221;45.296;9.516;2022-07-23T01:11:14;17.60;;;12.27;;
47812;SDS011;34221;45.296;9.516;2022-07-23T01:11:29;19.00;;;12.20;;
47812;SDS011;34221;45.296;9.516;2022-07-23T01:11:49;17.88;;;11.98;;
47812;SDS011;34221;45.296;9.516;2022-07-23T01:12:05;17.63;;;12.70;;
47812;SDS011;34221;45.296;9.516;2022-07-23T01:12:22;16.27;;;12.88;;
47812;SDS011;34221;45.296;9.516;2022-07-23T01:12:37;17.55;;;12.98;;
47812;SDS011;34221;45.296;9.516;2022-07-23T01:12:52;18.25;;;13.02;;
47812;SDS011;34221;45.296;9.516;2022-07-23T01:13:08;18.23;;;12.27;;
47812;SDS011;34221;45.296;9.516;2022-07-23T01:13:24;17.27;;;11.95;;
47812;SDS011;34221;45.296;9.516;2022-07-23T01:13:42;20.38;;;13.05;;
47812;SDS011;34221;45.296;9.516;2022-07-23T01:13:57;21.02;;;13.20;;
47812;SDS011;34221;45.296;9.516;2022-07-23T01:14:14;17.77;;;12.93;;
47812;SDS011;34221;45.296;9.516;2022-07-23T01:14:31;16.85;;;12.65;;
47812;SDS011;34221;45.296;9.516;2022-07-23T01:14:58;18.05;;;13.73;;
47812;SDS011;34221;45.296;9.516;2022-07-23T01:15:17;15.82;;;12.73;;
47812;SDS011;34221;45.296;9.516;2022-07-23T01:15:33;17.52;;;12.63;;
47812;SDS011;34221;45.296;9.516;2022-07-23T01:15:49;18.23;;;12.50;;
47812;SDS011;34221;45.296;9.516;2022-07-23T01:16:04;21.42;;;13.07;;
47812;SDS011;34221;45.296;9.516;2022-07-23T01:16:20;25.15;;;13.93;;
47812;SDS011;34221;45.296;9.516;2022-07-23T01:16:35;20.55;;;13.45;;
47812;SDS011;34221;45.296;9.516;2022-07-23T01:16:50;17.45;;;12.93;;
47812;SDS011;34221;45.296;9.516;2022-07-23T01:17:05;18.35;;;12.93;;
47812;SDS011;34221;45.296;9.516;2022-07-23T01:17:20;18.45;;;13.00;;
47812;SDS011;34221;45.296;9.516;2022-07-23T01:17:35;18.13;;;12.82;;
47812;SDS011;34221;45.296;9.516;2022-07-23T01:17:50;16.42;;;12.70;;
47812;SDS011;34221;45.296;9.516;2022-07-23T01:18:06;16.67;;;13.00;;
47812;SDS011;34221;45.296;9.516;2022-07-23T01:18:24;18.48;;;13.00;;
47812;SDS011;34221;45.296;9.516;2022-07-23T01:18:39;19.13;;;13.10;;
47812;SDS011;34221;45.296;9.516;2022-07-23T01:18:54;20.25;;;13.48;;
47812;SDS011;34221;45.296;9.516;2022-07-23T01:19:09;18.77;;;13.20;;
47812;SDS011;34221;45.296;9.516;2022-07-23T01:19:25;16.73;;;12.45;;
47812;SDS011;34221;45.296;9.516;2022-07-23T01:19:40;17.10;;;12.38;;
47812;SDS011;34221;45.296;9.516;2022-07-23T01:19:55;16.92;;;12.23;;
47812;SDS011;34221;45.296;9.516;2022-07-23T01:20:10;16.75;;;12.63;;
47812;SDS011;34221;45.296;9.516;2022-07-23T01:20:25;16.10;;;12.60;;
47812;SDS011;34221;45.296;9.516;2022-07-23T01:20:41;17.40;;;12.45;;
47812;SDS011;34221;45.296;9.516;2022-07-23T01:20:57;19.75;;;12.57;;
47812;SDS011;34221;45.296;9.516;2022-07-23T01:21:12;19.98;;;12.60;;
47812;SDS011;34221;45.296;9.516;2022-07-23T01:21:27;18.33;;;12.73;;
47812;SDS011;34221;45.296;9.516;2022-07-23T01:21:43;15.80;;;12.13;;
47812;SDS011;34221;45.296;9.516;2022-07-23T01:22:02;17.30;;;12.20;;
47812;SDS011;34221;45.296;9.516;2022-07-23T01:22:19;21.30;;;12.73;;
47812;SDS011;34221;45.296;9.516;2022-07-23T01:22:34;21.75;;;12.77;;
47812;SDS011;34221;45.296;9.516;2022-07-23T01:22:50;18.30;;;12.55;;
47812;SDS011;34221;45.296;9.516;2022-07-23T01:23:07;18.02;;;12.00;;
47812;SDS011;34221;45.296;9.516;2022-07-23T01:23:22;20.92;;;12.38;;
47812;SDS011;34221;45.296;9.516;2022-07-23T01:23:42;20.40;;;12.32;;
47812;SDS011;34221;45.296;9.516;2022-07-23T01:23:58;19.83;;;12.27;;
47812;SDS011;34221;45.296;9.516;2022-07-23T01:24:13;17.45;;;12.20;;
47812;SDS011;34221;45.296;9.516;2022-07-23T01:24:37;17.60;;;12.77;;
47812;SDS011;34221;45.296;9.516;2022-07-23T01:24:53;16.65;;;12.50;;
47812;SDS011;34221;45.296;9.516;2022-07-23T01:25:12;18.20;;;12.88;;
47812;SDS011;34221;45.296;9.516;2022-07-23T01:25:31;20.40;;;13.63;;
47812;SDS011;34221;45.296;9.516;2022-07-23T01:25:52;20.17;;;14.10;;
47812;SDS011;34221;45.296;9.516;2022-07-23T01:26:08;19.38;;;13.52;;
47812;SDS011;34221;45.296;9.516;2022-07-23T01:26:23;22.30;;;13.77;;
47812;SDS011;34221;45.296;9.516;2022-07-23T01:26:40;19.70;;;13.68;;
47812;SDS011;34221;45.296;9.516;2022-07-23T01:26:58;17.58;;;13.20;;
47812;SDS011;34221;45.296;9.516;2022-07-23T01:27:14;21.83;;;13.55;;
47812;SDS011;34221;45.296;9.516;2022-07-23T01:27:32;20.65;;;13.20;;
47812;SDS011;34221;45.296;9.516;2022-07-23T01:27:51;17.73;;;13.00;;
47812;SDS011;34221;45.296;9.516;2022-07-23T01:28:07;20.10;;;13.52;;
47812;SDS011;34221;45.296;9.516;2022-07-23T01:28:22;20.60;;;13.60;;
47812;SDS011;34221;45.296;9.516;2022-07-23T01:28:38;18.42;;;13.10;;
47812;SDS011;34221;45.296;9.516;2022-07-23T01:28:55;19.50;;;14.02;;
47812;SDS011;34221;45.296;9.516;2022-07-23T01:29:10;20.45;;;13.98;;
47812;SDS011;34221;45.296;9.516;2022-07-23T01:29:26;21.20;;;13.27;;
47812;SDS011;34221;45.296;9.516;2022-07-23T01:29:42;23.45;;;13.23;;
47812;SDS011;34221;45.296;9.516;2022-07-23T01:30:03;19.88;;;13.30;;
47812;SDS011;34221;45.296;9.516;2022-07-23T01:30:19;19.65;;;13.60;;
47812;SDS011;34221;45.296;9.516;2022-07-23T01:30:35;18.23;;;13.45;;
47812;SDS011;34221;45.296;9.516;2022-07-23T01:30:54;19.80;;;13.68;;
47812;SDS011;34221;45.296;9.516;2022-07-23T01:31:09;20.83;;;13.60;;
47812;SDS011;34221;45.296;9.516;2022-07-23T01:31:24;20.85;;;13.57;;
47812;SDS011;34221;45.296;9.516;2022-07-23T01:31:40;22.02;;;13.65;;
47812;SDS011;34221;45.296;9.516;2022-07-23T01:31:56;21.73;;;14.35;;
47812;SDS011;34221;45.296;9.516;2022-07-23T01:32:11;20.25;;;14.25;;
47812;SDS011;34221;45.296;9.516;2022-07-23T01:32:26;20.20;;;14.05;;
47812;SDS011;34221;45.296;9.516;2022-07-23T01:32:42;23.23;;;14.43;;
47812;SDS011;34221;45.296;9.516;2022-07-23T01:32:57;24.33;;;14.68;;
47812;SDS011;34221;45.296;9.516;2022-07-23T01:33:12;22.17;;;14.43;;
47812;SDS011;34221;45.296;9.516;2022-07-23T01:33:27;20.52;;;13.70;;
47812;SDS011;34221;45.296;9.516;2022-07-23T01:33:42;21.95;;;14.20;;
47812;SDS011;34221;45.296;9.516;2022-07-23T01:33:57;21.40;;;14.77;;